Time;durP1;ratioP1;P1;durP2;ratioP2;P2;SDS_P1;SDS_P2;PMS_P1;PMS_P2;Temp;Humidity;BMP_temperature;BMP_pressure;BME280_temperature;BME280_humidity;BME280_pressure;Samples;Min_cycle;Max_cycle;Signal;HPM_P1;HPM_P2
2024/01/04 00:00:58;;;;;;;1.60;1.20;;;8.90;98.20;;;;;;6050580;23;20502;-82
2024/01/04 00:03:26;;;;;;;1.60;1.20;;;8.90;98.20;;;;;;6063449;23;20518;-82
2024/01/04 00:05:52;;;;;;;1.60;1.10;;;8.90;98.20;;;;;;6058814;23;20469;-80
2024/01/04 00:08:19;;;;;;;1.60;1.20;;;8.90;98.20;;;;;;6063240;23;20463;-83
2024/01/04 00:10:52;;;;;;;1.60;1.20;;;8.90;98.20;;;;;;6073232;23;20427;-80
2024/01/04 00:13:19;;;;;;;1.60;1.10;;;8.90;98.20;;;;;;6063686;23;21027;-82
2024/01/04 00:15:59;;;;;;;1.60;1.10;;;8.90;98.20;;;;;;6073587;23;20427;-82
2024/01/04 00:18:27;;;;;;;1.60;1.20;;;8.90;98.20;;;;;;6025719;23;20510;-82
2024/01/04 00:20:54;;;;;;;1.60;1.30;;;8.90;98.20;;;;;;6051436;23;20633;-82
2024/01/04 00:23:21;;;;;;;1.60;1.20;;;8.90;98.20;;;;;;6101531;23;20435;-81
2024/01/04 00:25:47;;;;;;;1.60;1.20;;;8.80;98.20;;;;;;6082626;23;20489;-81
2024/01/04 00:28:14;;;;;;;1.60;1.10;;;8.90;98.20;;;;;;6062393;23;20688;-81
2024/01/04 00:30:41;;;;;;;1.60;1.20;;;8.90;98.20;;;;;;6063139;23;20867;-83
2024/01/04 00:33:09;;;;;;;1.60;1.17;;;8.90;98.20;;;;;;6048158;23;20466;-81
2024/01/04 00:35:36;;;;;;;1.60;1.20;;;8.90;98.20;;;;;;6063673;23;20489;-82
2024/01/04 00:38:03;;;;;;;1.60;1.20;;;8.90;98.20;;;;;;6071917;23;20534;-82
2024/01/04 00:40:30;;;;;;;1.60;1.10;;;8.90;98.20;;;;;;6062901;23;20841;-81
2024/01/04 00:42:57;;;;;;;1.60;1.17;;;8.90;98.20;;;;;;6072239;23;20480;-80
2024/01/04 00:45:26;;;;;;;1.60;1.20;;;8.90;98.20;;;;;;6063055;23;20423;-82
2024/01/04 00:47:53;;;;;;;1.60;1.17;;;8.90;98.20;;;;;;6072429;23;20450;-83
2024/01/04 00:50:21;;;;;;;1.60;1.20;;;8.90;98.20;;;;;;6073529;23;20424;-82
2024/01/04 00:52:48;;;;;;;1.60;1.20;;;9.00;98.20;;;;;;6073525;23;20530;-81
2024/01/04 00:55:16;;;;;;;1.60;1.20;;;9.00;98.20;;;;;;6099941;23;20872;-83
2024/01/04 00:57:47;;;;;;;1.60;1.20;;;9.00;98.20;;;;;;6078256;23;20450;-82
2024/01/04 01:00:17;;;;;;;1.60;1.10;;;9.00;98.20;;;;;;6102047;23;20979;-82
2024/01/04 01:02:47;;;;;;;1.60;1.20;;;9.00;98.20;;;;;;6078563;23;20481;-83
2024/01/04 01:05:16;;;;;;;1.60;1.10;;;9.00;98.20;;;;;;6100895;23;20479;-82
2024/01/04 01:07:48;;;;;;;1.60;1.20;;;9.00;98.20;;;;;;6077900;23;20530;-82
2024/01/04 01:10:18;;;;;;;1.60;1.20;;;9.00;98.20;;;;;;6102750;23;20438;-82
2024/01/04 01:12:50;;;;;;;1.60;1.10;;;9.00;98.20;;;;;;6075306;23;20485;-83
2024/01/04 01:15:21;;;;;;;1.60;1.20;;;9.00;98.20;;;;;;6091420;23;20442;-84
2024/01/04 01:17:51;;;;;;;1.70;1.20;;;9.00;98.20;;;;;;6077862;23;20494;-83
2024/01/04 01:20:20;;;;;;;1.60;1.20;;;9.00;98.20;;;;;;6103164;23;20422;-81
2024/01/04 01:22:50;;;;;;;1.60;1.20;;;9.00;98.20;;;;;;6077892;23;20478;-82
2024/01/04 01:25:17;;;;;;;1.60;1.30;;;9.00;98.20;;;;;;6092301;23;20469;-83
2024/01/04 01:27:51;;;;;;;1.60;1.10;;;9.00;98.20;;;;;;6077202;23;20673;-83
2024/01/04 01:30:22;;;;;;;1.60;1.10;;;9.00;98.20;;;;;;6102411;23;20445;-83
2024/01/04 01:32:49;;;;;;;1.60;1.20;;;9.00;98.20;;;;;;6077727;23;20450;-83
2024/01/04 01:35:24;;;;;;;1.60;1.20;;;9.00;98.20;;;;;;6101585;23;20545;-83
2024/01/04 01:38:02;;;;;;;1.60;1.17;;;9.00;98.20;;;;;;6078053;23;20450;-82
2024/01/04 01:40:34;;;;;;;1.60;1.10;;;9.00;98.20;;;;;;6102401;23;20784;-81
2024/01/04 01:43:01;;;;;;;1.60;1.20;;;9.00;98.20;;;;;;6075567;23;20478;-84
2024/01/04 01:45:51;;;;;;;1.60;1.20;;;9.00;98.20;;;;;;6100909;23;20433;-82
2024/01/04 01:48:23;;;;;;;1.60;1.10;;;9.00;98.20;;;;;;6051050;23;20438;-80
2024/01/04 01:50:56;;;;;;;1.60;1.20;;;9.00;98.20;;;;;;6077516;23;20509;-82
2024/01/04 01:53:31;;;;;;;1.60;1.10;;;9.00;98.20;;;;;;6099420;23;20477;-82
2024/01/04 01:56:00;;;;;;;1.60;1.20;;;9.00;98.20;;;;;;6084959;23;20430;-84
2024/01/04 01:58:27;;;;;;;1.60;1.10;;;9.00;98.20;;;;;;6100366;23;20419;-82
2024/01/04 02:01:03;;;;;;;1.60;1.10;;;9.00;98.20;;;;;;6077842;23;20506;-83
2024/01/04 02:03:31;;;;;;;1.60;1.20;;;9.00;98.20;;;;;;6100482;23;20430;-86
2024/01/04 02:05:58;;;;;;;1.60;1.10;;;9.00;98.20;;;;;;6086070;23;20418;-82
2024/01/04 02:08:28;;;;;;;1.60;1.20;;;9.00;98.20;;;;;;6099771;23;20418;-82
2024/01/04 02:10:55;;;;;;;1.60;1.20;;;9.00;98.20;;;;;;6077293;23;20505;-84
2024/01/04 02:13:21;;;;;;;1.60;1.20;;;9.00;98.20;;;;;;6084556;23;20526;-82
2024/01/04 02:15:52;;;;;;;1.60;1.20;;;9.00;98.20;;;;;;6076036;23;20455;-83
2024/01/04 02:18:19;;;;;;;1.60;1.20;;;9.00;98.20;;;;;;6089948;23;20507;-84
2024/01/04 02:20:51;;;;;;;1.60;1.20;;;9.00;98.20;;;;;;6091068;23;20937;-82
2024/01/04 02:23:25;;;;;;;1.60;1.10;;;9.00;98.20;;;;;;6051690;23;20787;-83
2024/01/04 02:25:52;;;;;;;1.60;1.10;;;8.90;98.20;;;;;;6075894;23;20434;-83
2024/01/04 02:28:21;;;;;;;1.60;1.10;;;8.90;98.20;;;;;;6101662;23;20446;-83
2024/01/04 02:30:48;;;;;;;1.60;1.20;;;8.90;98.20;;;;;;6089042;23;20844;-82
2024/01/04 02:33:17;;;;;;;1.60;1.20;;;8.90;98.20;;;;;;6091857;23;20863;-83
2024/01/04 02:35:55;;;;;;;1.60;1.20;;;8.90;98.20;;;;;;6108164;23;20448;-79
2024/01/04 02:38:32;;;;;;;1.60;1.20;;;8.80;98.20;;;;;;6060470;23;20606;-83
2024/01/04 02:40:58;;;;;;;1.60;1.20;;;8.80;98.20;;;;;;6087362;23;20426;-81
2024/01/04 02:43:25;;;;;;;1.60;1.20;;;8.80;98.20;;;;;;6102802;23;20446;-81
2024/01/04 02:45:57;;;;;;;1.60;1.20;;;8.80;98.20;;;;;;6078212;23;21011;-83
2024/01/04 02:48:24;;;;;;;1.60;1.20;;;8.80;98.20;;;;;;6102325;23;20482;-82
2024/01/04 02:50:54;;;;;;;1.60;1.10;;;8.80;98.20;;;;;;6078833;23;20422;-83
2024/01/04 02:53:36;;;;;;;1.60;1.20;;;8.90;98.20;;;;;;6102049;23;20504;-82
2024/01/04 02:56:04;;;;;;;1.60;1.10;;;8.90;98.20;;;;;;6086201;23;21066;-83
2024/01/04 02:58:31;;;;;;;1.60;1.10;;;8.90;98.20;;;;;;6102470;23;20418;-83
2024/01/04 03:00:58;;;;;;;1.60;1.10;;;8.90;98.20;;;;;;6088904;23;20874;-82
2024/01/04 03:03:26;;;;;;;1.60;1.20;;;8.90;98.20;;;;;;6102206;23;20519;-82
2024/01/04 03:05:59;;;;;;;1.60;1.10;;;8.90;98.20;;;;;;6087335;23;20429;-81
2024/01/04 03:08:37;;;;;;;1.60;1.20;;;8.90;98.20;;;;;;6101780;23;20439;-83
2024/01/04 03:11:07;;;;;;;1.60;1.20;;;8.90;98.20;;;;;;6088011;23;20430;-82
2024/01/04 03:13:43;;;;;;;1.60;1.13;;;8.90;98.20;;;;;;6092530;23;20774;-84
2024/01/04 03:16:17;;;;;;;1.60;1.10;;;9.00;98.20;;;;;;6085734;23;20477;-83
2024/01/04 03:18:44;;;;;;;1.60;1.20;;;9.00;98.20;;;;;;6102045;23;20394;-83
2024/01/04 03:21:11;;;;;;;1.60;1.10;;;8.90;98.20;;;;;;6079175;23;20477;-84
2024/01/04 03:23:39;;;;;;;1.60;1.20;;;8.90;98.20;;;;;;6101391;23;20482;-83
2024/01/04 03:26:06;;;;;;;1.60;1.20;;;8.90;98.20;;;;;;6086455;23;20414;-83
2024/01/04 03:28:33;;;;;;;1.60;1.10;;;8.90;98.20;;;;;;6092043;23;20534;-84
2024/01/04 03:31:01;;;;;;;1.60;1.20;;;9.00;98.20;;;;;;6087614;23;20447;-83
2024/01/04 03:33:28;;;;;;;1.60;1.20;;;9.00;98.20;;;;;;6092606;23;20449;-82
2024/01/04 03:35:55;;;;;;;1.60;1.20;;;9.00;98.20;;;;;;6085707;23;20423;-82
2024/01/04 03:38:22;;;;;;;1.60;1.20;;;8.90;98.20;;;;;;6091000;23;20502;-84
2024/01/04 03:40:50;;;;;;;1.60;1.20;;;8.90;98.20;;;;;;6078784;23;20419;-81
2024/01/04 03:43:17;;;;;;;1.60;1.20;;;9.00;98.20;;;;;;6091788;23;20449;-81
2024/01/04 03:45:44;;;;;;;1.60;1.20;;;9.00;98.20;;;;;;6091973;23;20730;-81
2024/01/04 03:48:16;;;;;;;1.60;1.10;;;9.00;98.20;;;;;;6077208;23;20470;-83
2024/01/04 03:50:45;;;;;;;1.60;1.20;;;9.00;98.20;;;;;;6102709;23;20425;-82
2024/01/04 03:53:12;;;;;;;1.60;1.20;;;9.00;98.20;;;;;;6054237;23;20643;-82
2024/01/04 03:55:41;;;;;;;1.60;1.30;;;9.00;98.20;;;;;;6093442;23;20421;-81
2024/01/04 03:58:19;;;;;;;1.60;1.10;;;9.00;98.20;;;;;;6077461;23;20438;-83
2024/01/04 04:00:54;;;;;;;1.60;1.20;;;9.00;98.20;;;;;;6102998;23;20514;-84
2024/01/04 04:03:26;;;;;;;1.60;1.20;;;9.00;98.20;;;;;;6054164;23;20434;-83
2024/01/04 04:05:58;;;;;;;1.60;1.20;;;9.00;98.20;;;;;;6086343;23;20426;-84
2024/01/04 04:08:31;;;;;;;1.60;1.20;;;9.00;98.20;;;;;;6101378;23;20541;-84
2024/01/04 04:10:58;;;;;;;7.77;4.40;;;8.90;98.20;;;;;;6078718;23;20763;-83
2024/01/04 04:13:26;;;;;;;1.60;1.10;;;8.90;98.20;;;;;;6090112;23;20439;-82
2024/01/04 04:15:53;;;;;;;1.60;1.30;;;8.90;98.20;;;;;;6078723;23;20603;-83
2024/01/04 04:18:20;;;;;;;1.60;1.20;;;8.90;98.20;;;;;;6102092;23;20443;-83
2024/01/04 04:20:53;;;;;;;1.60;1.30;;;8.90;98.20;;;;;;6102675;23;20959;-83
2024/01/04 04:23:19;;;;;;;1.60;1.23;;;8.90;98.20;;;;;;6077931;23;20498;-83
2024/01/04 04:25:48;;;;;;;1.60;1.13;;;8.90;98.20;;;;;;6103110;23;20419;-81
2024/01/04 04:28:15;;;;;;;1.60;1.20;;;8.90;98.20;;;;;;6053668;23;20484;-83
2024/01/04 04:30:50;;;;;;;1.60;1.10;;;8.90;98.20;;;;;;6109175;23;20462;-83
2024/01/04 04:33:17;;;;;;;1.60;1.10;;;8.90;98.20;;;;;;6025432;23;20499;-82
2024/01/04 04:35:59;;;;;;;1.60;1.10;;;8.90;98.20;;;;;;6072985;23;20498;-84
2024/01/04 04:38:26;;;;;;;1.60;1.20;;;8.90;98.20;;;;;;6053744;23;20441;-83
2024/01/04 04:41:02;;;;;;;1.60;1.20;;;8.90;98.20;;;;;;6091296;23;20494;-82
2024/01/04 04:43:29;;;;;;;1.60;1.20;;;8.90;98.20;;;;;;6077115;23;20465;-81
2024/01/04 04:45:58;;;;;;;1.60;1.30;;;8.90;98.20;;;;;;6077752;23;20426;-83
2024/01/04 04:48:25;;;;;;;1.60;1.20;;;8.90;98.20;;;;;;6090683;23;20446;-83
2024/01/04 04:50:53;;;;;;;1.60;1.10;;;8.90;98.20;;;;;;6076912;23;20485;-84
2024/01/04 04:53:20;;;;;;;1.60;1.20;;;8.90;98.20;;;;;;6091091;23;21059;-82
2024/01/04 04:55:46;;;;;;;1.80;1.57;;;8.90;98.20;;;;;;6085487;23;20870;-82
2024/01/04 04:58:13;;;;;;;1.60;1.20;;;8.90;98.20;;;;;;6089443;23;20677;-82
2024/01/04 05:00:40;;;;;;;1.60;1.20;;;8.90;98.20;;;;;;6092089;23;20423;-84
2024/01/04 05:03:08;;;;;;;1.60;1.20;;;8.80;98.20;;;;;;6075490;23;20864;-84
2024/01/04 05:05:43;;;;;;;1.57;1.20;;;8.80;98.20;;;;;;6092148;23;20419;-85
2024/01/04 05:08:12;;;;;;;1.60;1.13;;;8.80;98.20;;;;;;6077046;23;20448;-83
2024/01/04 05:10:39;;;;;;;1.60;1.30;;;8.90;98.20;;;;;;6101440;23;20931;-80
2024/01/04 05:13:06;;;;;;;1.60;1.20;;;8.90;98.20;;;;;;6076346;23;20550;-80
2024/01/04 05:15:34;;;;;;;1.60;1.20;;;8.80;98.20;;;;;;6091813;23;20505;-81
2024/01/04 05:18:01;;;;;;;1.60;1.20;;;8.80;98.20;;;;;;6076761;23;21042;-81
2024/01/04 05:20:29;;;;;;;1.60;1.20;;;8.80;98.20;;;;;;6094310;23;20765;-79
2024/01/04 05:22:57;;;;;;;1.60;1.17;;;8.80;98.20;;;;;;6077040;23;20598;-79
2024/01/04 05:25:24;;;;;;;1.60;1.20;;;8.80;98.20;;;;;;6093352;23;20418;-81
2024/01/04 05:27:51;;;;;;;1.60;1.20;;;8.80;98.20;;;;;;6075014;23;21118;-79
2024/01/04 05:30:18;;;;;;;1.60;1.30;;;8.80;98.20;;;;;;6092787;23;20427;-78
2024/01/04 05:32:45;;;;;;;1.60;1.20;;;8.80;98.20;;;;;;6076610;23;20554;-81
2024/01/04 05:35:12;;;;;;;1.60;1.23;;;8.80;98.20;;;;;;6091930;23;20470;-79
2024/01/04 05:37:41;;;;;;;1.60;1.10;;;8.80;98.20;;;;;;6076721;23;20524;-79
2024/01/04 05:40:09;;;;;;;1.60;1.20;;;8.80;98.20;;;;;;6093855;23;20509;-81
2024/01/04 05:42:36;;;;;;;1.60;1.17;;;8.80;98.20;;;;;;6076998;23;20450;-79
2024/01/04 05:45:04;;;;;;;1.60;1.20;;;8.80;98.20;;;;;;6093548;23;20785;-83
2024/01/04 05:47:30;;;;;;;1.60;1.20;;;8.80;98.20;;;;;;6079168;23;20644;-81
2024/01/04 05:49:57;;;;;;;1.60;1.30;;;8.80;98.20;;;;;;6094023;23;20469;-81
2024/01/04 05:52:24;;;;;;;1.60;1.20;;;8.70;98.20;;;;;;6078194;23;20494;-80
2024/01/04 05:54:52;;;;;;;1.60;1.10;;;8.70;98.20;;;;;;6093660;23;20456;-81
2024/01/04 05:57:19;;;;;;;1.60;1.20;;;8.60;98.20;;;;;;6078690;23;20535;-80
2024/01/04 05:59:46;;;;;;;1.63;1.47;;;8.60;98.20;;;;;;6092562;23;20510;-82
2024/01/04 06:02:13;;;;;;;1.60;1.20;;;8.60;98.20;;;;;;6079201;23;20474;-82
2024/01/04 06:04:39;;;;;;;1.60;1.13;;;8.60;98.20;;;;;;6092091;23;20450;-82
2024/01/04 06:07:06;;;;;;;1.60;1.20;;;8.60;98.20;;;;;;6078870;23;20550;-83
2024/01/04 06:09:43;;;;;;;1.60;1.10;;;8.50;98.20;;;;;;6093589;23;20485;-82
2024/01/04 06:12:21;;;;;;;1.60;1.20;;;8.50;98.20;;;;;;6079675;23;20460;-80
2024/01/04 06:15:14;;;;;;;1.60;1.10;;;8.50;98.20;;;;;;6093707;23;20497;-81
2024/01/04 06:17:41;;;;;;;1.60;1.20;;;8.50;98.20;;;;;;6077318;23;20453;-81
2024/01/04 06:20:09;;;;;;;1.60;1.30;;;8.50;98.20;;;;;;6103014;23;20982;-83
2024/01/04 06:22:36;;;;;;;1.60;1.10;;;8.50;98.20;;;;;;6079779;23;20964;-83
2024/01/04 06:25:03;;;;;;;1.60;1.20;;;8.50;98.20;;;;;;6103928;23;20442;-81
2024/01/04 06:27:31;;;;;;;1.60;1.23;;;8.50;98.20;;;;;;6081295;23;20525;-82
2024/01/04 06:29:59;;;;;;;1.60;1.30;;;8.50;98.20;;;;;;6093417;23;20462;-82
2024/01/04 06:32:28;;;;;;;1.60;1.17;;;8.50;98.20;;;;;;6077206;23;20515;-79
2024/01/04 06:34:55;;;;;;;1.60;1.10;;;8.50;98.20;;;;;;6101777;23;20932;-82
2024/01/04 06:37:44;;;;;;;1.60;1.10;;;8.50;98.20;;;;;;6082014;23;20450;-82
2024/01/04 06:40:12;;;;;;;1.60;1.30;;;8.50;98.20;;;;;;6103283;23;20506;-82
2024/01/04 06:42:52;;;;;;;1.60;1.20;;;8.50;98.20;;;;;;6078678;23;20815;-82
2024/01/04 06:45:21;;;;;;;1.60;1.20;;;8.50;98.20;;;;;;6103754;23;20446;-84
2024/01/04 06:47:55;;;;;;;1.60;1.20;;;8.50;98.20;;;;;;6080151;23;20454;-83
2024/01/04 06:50:22;;;;;;;1.60;1.10;;;8.50;98.20;;;;;;6094283;23;20403;-83
2024/01/04 06:53:00;;;;;;;1.60;1.13;;;8.50;98.20;;;;;;6078585;23;20450;-83
2024/01/04 06:55:29;;;;;;;1.60;1.20;;;8.50;98.20;;;;;;6104234;23;20425;-81
2024/01/04 06:58:00;;;;;;;1.60;1.20;;;8.50;98.20;;;;;;6076768;23;20450;-82
2024/01/04 07:00:32;;;;;;;1.60;1.20;;;8.50;98.20;;;;;;6104319;23;20437;-82
2024/01/04 07:03:01;;;;;;;1.60;1.20;;;8.50;98.20;;;;;;6078449;23;20474;-81
2024/01/04 07:05:28;;;;;;;1.60;1.20;;;8.50;98.20;;;;;;6102767;23;20793;-80
2024/01/04 07:07:55;;;;;;;1.60;1.20;;;8.50;98.20;;;;;;6080241;23;20502;-81
2024/01/04 07:10:22;;;;;;;1.67;1.33;;;8.40;98.20;;;;;;6094465;23;20502;-81
2024/01/04 07:12:49;;;;;;;1.60;1.30;;;8.40;98.20;;;;;;6080777;23;20454;-83
2024/01/04 07:15:17;;;;;;;1.60;1.20;;;8.40;98.20;;;;;;6099626;23;20468;-83
2024/01/04 07:17:44;;;;;;;1.60;1.20;;;8.40;98.20;;;;;;6078683;23;20537;-84
2024/01/04 07:20:12;;;;;;;1.60;1.20;;;8.40;98.20;;;;;;6095197;23;20510;-85
2024/01/04 07:22:38;;;;;;;1.60;1.20;;;8.40;98.20;;;;;;6081699;23;20478;-82
2024/01/04 07:25:06;;;;;;;1.60;1.20;;;8.40;98.20;;;;;;6096972;23;20455;-81
2024/01/04 07:27:33;;;;;;;1.60;1.20;;;8.40;98.20;;;;;;6080419;23;20518;-80
2024/01/04 07:30:00;;;;;;;1.60;1.20;;;8.40;98.20;;;;;;6096423;23;20465;-82
2024/01/04 07:32:28;;;;;;;1.60;1.30;;;8.40;98.20;;;;;;6081847;23;20487;-83
2024/01/04 07:34:55;;;;;;;1.60;1.30;;;8.40;98.20;;;;;;6095353;23;20438;-83
2024/01/04 07:37:22;;;;;;;1.60;1.20;;;8.40;98.20;;;;;;6082115;23;20450;-83
2024/01/04 07:39:49;;;;;;;1.60;1.30;;;8.40;98.20;;;;;;6095783;23;20966;-83
2024/01/04 07:42:16;;;;;;;1.60;1.10;;;8.40;98.20;;;;;;6080657;23;20515;-85
2024/01/04 07:44:44;;;;;;;1.60;1.20;;;8.40;98.20;;;;;;6094566;23;20470;-81
2024/01/04 07:47:11;;;;;;;1.60;1.10;;;8.40;98.20;;;;;;6081150;23;20450;-84
2024/01/04 07:49:39;;;;;;;1.60;1.30;;;8.40;98.20;;;;;;6096355;23;20453;-85
2024/01/04 07:52:06;;;;;;;1.60;1.10;;;8.40;98.20;;;;;;6081346;23;20787;-84
2024/01/04 07:54:33;;;;;;;1.60;1.20;;;8.40;98.20;;;;;;6095374;23;20481;-83
2024/01/04 07:57:00;;;;;;;1.60;1.20;;;8.40;98.20;;;;;;6079986;23;20450;-83
2024/01/04 07:59:27;;;;;;;1.60;1.20;;;8.50;98.20;;;;;;6102735;23;20448;-83
2024/01/04 08:01:54;;;;;;;1.60;1.30;;;8.50;98.20;;;;;;6080201;23;20460;-84
2024/01/04 08:04:21;;;;;;;1.60;1.20;;;8.50;98.20;;;;;;6094444;23;20768;-84
2024/01/04 08:06:50;;;;;;;1.60;1.30;;;8.50;98.20;;;;;;6079425;23;20481;-82
2024/01/04 08:09:17;;;;;;;1.60;1.30;;;8.50;98.20;;;;;;6093911;23;20457;-83
2024/01/04 08:11:45;;;;;;;1.60;1.20;;;8.60;98.20;;;;;;6079758;23;20450;-81
2024/01/04 08:14:12;;;;;;;1.60;1.10;;;8.60;98.20;;;;;;6091517;23;20466;-80
2024/01/04 08:16:39;;;;;;;1.60;1.10;;;8.60;98.20;;;;;;6078205;23;20473;-80
2024/01/04 08:19:06;;;;;;;1.60;1.20;;;8.60;98.20;;;;;;6092816;23;20418;-81
2024/01/04 08:21:33;;;;;;;1.60;1.20;;;8.60;98.20;;;;;;6078785;23;20590;-83
2024/01/04 08:24:03;;;;;;;1.60;1.20;;;8.60;98.20;;;;;;6093321;23;20446;-82
2024/01/04 08:26:30;;;;;;;1.60;1.10;;;8.60;98.20;;;;;;6082287;23;20451;-82
2024/01/04 08:28:56;;;;;;;1.60;1.30;;;8.60;98.20;;;;;;6095124;23;20482;-82
2024/01/04 08:31:23;;;;;;;1.60;1.30;;;8.60;98.20;;;;;;6079810;23;20482;-79
2024/01/04 08:33:50;;;;;;;1.60;1.20;;;8.60;98.20;;;;;;6091953;23;20443;-81
2024/01/04 08:36:17;;;;;;;1.60;1.20;;;8.60;98.20;;;;;;6079006;23;20446;-83
2024/01/04 08:38:43;;;;;;;1.60;1.20;;;8.60;98.20;;;;;;6093551;23;20445;-82
2024/01/04 08:41:11;;;;;;;1.60;1.20;;;8.60;98.20;;;;;;6080019;23;21031;-82
2024/01/04 08:43:38;;;;;;;1.60;1.20;;;8.60;98.20;;;;;;6094478;23;20225;-80
2024/01/04 08:46:05;;;;;;;1.60;1.20;;;8.70;98.20;;;;;;6079603;23;20483;-83
2024/01/04 08:48:31;;;;;;;1.60;1.20;;;8.70;98.20;;;;;;6093886;23;20852;-78
2024/01/04 08:50:59;;;;;;;1.60;1.20;;;8.70;98.20;;;;;;6079791;23;20465;-81
2024/01/04 08:53:26;;;;;;;1.60;1.20;;;8.70;98.20;;;;;;6093078;23;20474;-81
2024/01/04 08:55:52;;;;;;;1.60;1.20;;;8.80;98.20;;;;;;6077005;23;20501;-82
2024/01/04 08:58:20;;;;;;;1.60;1.30;;;8.80;98.20;;;;;;6092731;23;20533;-83
2024/01/04 09:00:47;;;;;;;1.60;1.20;;;8.80;98.20;;;;;;6094365;23;20924;-82
2024/01/04 09:03:14;;;;;;;1.60;1.20;;;8.90;98.20;;;;;;6093630;23;20438;-83
2024/01/04 09:05:41;;;;;;;1.60;1.10;;;8.90;98.20;;;;;;6104692;23;20431;-82
2024/01/04 09:08:09;;;;;;;1.60;1.13;;;9.00;98.20;;;;;;6079913;23;20450;-83
2024/01/04 09:10:36;;;;;;;1.60;1.10;;;9.00;98.20;;;;;;6094077;23;20430;-80
2024/01/04 09:13:02;;;;;;;1.60;1.30;;;9.00;98.20;;;;;;6077064;23;20557;-79
2024/01/04 09:15:30;;;;;;;1.60;1.10;;;9.00;98.20;;;;;;6094302;23;20513;-80
2024/01/04 09:17:57;;;;;;;1.60;1.20;;;9.10;98.20;;;;;;6077617;23;20465;-81
2024/01/04 09:20:24;;;;;;;1.60;1.10;;;9.10;98.20;;;;;;6094766;23;20920;-81
2024/01/04 09:22:51;;;;;;;1.60;1.10;;;9.10;98.20;;;;;;6082132;23;20450;-82
2024/01/04 09:25:18;;;;;;;1.60;1.17;;;9.20;98.20;;;;;;6093880;23;20478;-83
2024/01/04 09:27:45;;;;;;;1.60;1.17;;;9.20;98.20;;;;;;6078264;23;20450;-82
2024/01/04 09:30:13;;;;;;;1.60;1.20;;;9.20;98.20;;;;;;6091261;23;20505;-79
2024/01/04 09:32:43;;;;;;;1.60;1.10;;;9.20;98.20;;;;;;6076537;23;20454;-78
2024/01/04 09:35:10;;;;;;;1.60;1.20;;;9.20;98.20;;;;;;6100828;23;20494;-80
2024/01/04 09:37:37;;;;;;;1.60;1.20;;;9.10;98.20;;;;;;6076498;23;20494;-75
2024/01/04 09:40:04;;;;;;;1.60;1.10;;;9.10;98.20;;;;;;6091869;23;20418;-80
2024/01/04 09:42:36;;;;;;;1.60;1.13;;;9.10;98.20;;;;;;6077841;23;21017;-80
2024/01/04 09:45:08;;;;;;;1.60;1.10;;;9.00;98.20;;;;;;6092838;23;20538;-82
2024/01/04 09:47:36;;;;;;;1.60;1.30;;;9.10;98.20;;;;;;6078461;23;20457;-81
2024/01/04 09:50:05;;;;;;;1.60;1.30;;;9.10;98.20;;;;;;6102877;23;20485;-82
2024/01/04 09:52:34;;;;;;;1.60;1.20;;;9.10;98.20;;;;;;6079854;23;20507;-82
2024/01/04 09:55:03;;;;;;;1.60;1.20;;;9.20;98.20;;;;;;6102072;23;20795;-81
2024/01/04 09:57:30;;;;;;;1.60;1.20;;;9.20;98.20;;;;;;6077074;23;20461;-80
2024/01/04 09:59:57;;;;;;;1.60;1.10;;;9.20;98.20;;;;;;6093317;23;20944;-82
2024/01/04 10:02:24;;;;;;;1.60;1.20;;;9.20;98.20;;;;;;6079486;23;20529;-82
2024/01/04 10:04:52;;;;;;;1.60;1.20;;;9.30;98.20;;;;;;6097179;23;20526;-79
2024/01/04 10:07:24;;;;;;;1.60;1.10;;;9.30;98.20;;;;;;6089995;23;20522;-82
2024/01/04 10:09:57;;;;;;;1.60;1.20;;;9.30;98.20;;;;;;6104839;23;20458;-82
2024/01/04 10:12:27;;;;;;;1.60;1.20;;;9.30;98.20;;;;;;6091161;23;20510;-82
2024/01/04 10:14:54;;;;;;;1.70;1.40;;;9.30;98.20;;;;;;6105181;23;20503;-82
2024/01/04 10:17:21;;;;;;;1.60;1.10;;;9.30;98.20;;;;;;6090113;23;20518;-78
2024/01/04 10:19:48;;;;;;;1.60;1.20;;;9.30;98.20;;;;;;6102879;23;20419;-81
2024/01/04 10:22:15;;;;;;;1.60;1.10;;;9.30;98.20;;;;;;6087973;23;21042;-78
2024/01/04 10:24:48;;;;;;;1.60;1.17;;;9.40;98.20;;;;;;6102127;23;20446;-80
2024/01/04 10:27:16;;;;;;;1.60;1.20;;;9.50;98.20;;;;;;6082967;23;20450;-81
2024/01/04 10:29:46;;;;;;;1.60;1.20;;;9.60;98.20;;;;;;6101486;23;20538;-80
2024/01/04 10:32:14;;;;;;;1.60;1.10;;;9.60;98.20;;;;;;6085659;23;20533;-78
2024/01/04 10:34:41;;;;;;;1.60;1.10;;;9.80;98.20;;;;;;6106333;23;20525;-82
2024/01/04 10:37:09;;;;;;;1.60;1.10;;;9.90;98.20;;;;;;6093320;23;20457;-82
2024/01/04 10:39:36;;;;;;;1.60;1.10;;;10.00;98.20;;;;;;6108011;23;20415;-82
2024/01/04 10:42:05;;;;;;;1.60;1.33;;;10.00;98.20;;;;;;6093272;23;20451;-82
2024/01/04 10:44:33;;;;;;;1.60;1.10;;;10.10;98.20;;;;;;6107938;23;20514;-83
2024/01/04 10:47:01;;;;;;;1.60;1.13;;;10.30;98.20;;;;;;6091661;23;20450;-82
2024/01/04 10:49:28;;;;;;;1.60;1.00;;;10.40;98.20;;;;;;6105038;23;20534;-81
2024/01/04 10:51:57;;;;;;;1.60;1.10;;;10.60;98.20;;;;;;6096884;23;20470;-80
2024/01/04 10:54:30;;;;;;;1.60;1.10;;;10.70;98.20;;;;;;6106158;23;20450;-84
2024/01/04 10:56:59;;;;;;;1.60;1.13;;;10.80;98.20;;;;;;6093576;23;20470;-83
2024/01/04 10:59:29;;;;;;;1.60;1.10;;;10.90;98.20;;;;;;6103747;23;20454;-83
2024/01/04 11:01:56;;;;;;;1.60;1.20;;;11.00;98.20;;;;;;6087381;23;20450;-83
2024/01/04 11:04:23;;;;;;;1.60;1.10;;;11.00;98.20;;;;;;6102448;23;20458;-82
2024/01/04 11:06:52;;;;;;;1.60;1.10;;;11.00;98.20;;;;;;6090558;23;20450;-83
2024/01/04 11:09:20;;;;;;;1.60;1.10;;;10.90;98.20;;;;;;6105213;23;20473;-82
2024/01/04 11:11:49;;;;;;;1.60;1.10;;;10.80;98.20;;;;;;6086618;23;20455;-84
2024/01/04 11:14:16;;;;;;;1.60;1.10;;;10.70;98.20;;;;;;6105866;23;20537;-82
2024/01/04 11:16:58;;;;;;;1.53;1.00;;;10.60;98.20;;;;;;6090507;23;20488;-84
2024/01/04 11:19:36;;;;;;;1.60;1.40;;;10.60;98.20;;;;;;6102029;23;20414;-82
2024/01/04 11:22:16;;;;;;;1.60;1.07;;;10.50;98.20;;;;;;6092305;23;20690;-81
2024/01/04 11:24:54;;;;;;;2.27;2.07;;;10.50;98.20;;;;;;6106589;23;20513;-83
2024/01/04 11:27:23;;;;;;;1.60;1.17;;;10.60;98.20;;;;;;6095414;23;20454;-83
2024/01/04 11:29:53;;;;;;;1.60;1.10;;;10.70;98.20;;;;;;6100919;23;20446;-81
2024/01/04 11:32:21;;;;;;;1.57;1.10;;;10.70;98.20;;;;;;6090566;23;20446;-81
2024/01/04 11:34:49;;;;;;;1.60;1.10;;;10.70;98.20;;;;;;6101069;23;20542;-79
2024/01/04 11:37:18;;;;;;;1.60;1.00;;;10.70;98.20;;;;;;6085587;23;20510;-82
2024/01/04 11:39:55;;;;;;;1.60;1.00;;;10.70;98.20;;;;;;6105200;23;20422;-83
2024/01/04 11:42:35;;;;;;;1.60;1.00;;;10.70;98.20;;;;;;6087497;23;20450;-83
2024/01/04 11:45:04;;;;;;;1.60;1.10;;;10.70;98.20;;;;;;6101261;23;20521;-82
2024/01/04 11:47:36;;;;;;;1.60;1.10;;;10.60;98.20;;;;;;6086302;23;20454;-82
2024/01/04 11:50:03;;;;;;;1.60;1.10;;;10.50;98.20;;;;;;6103316;23;20441;-81
2024/01/04 11:52:31;;;;;;;1.57;1.10;;;10.50;98.20;;;;;;6088648;23;20450;-80
2024/01/04 11:54:58;;;;;;;1.60;1.10;;;10.40;98.20;;;;;;6103609;23;20539;-81
2024/01/04 11:57:25;;;;;;;2.90;2.70;;;10.40;98.20;;;;;;6089999;23;20947;-84
2024/01/04 11:59:51;;;;;;;1.60;1.10;;;10.30;98.20;;;;;;6114836;23;20849;-82
2024/01/04 12:02:20;;;;;;;1.60;1.10;;;10.30;98.20;;;;;;6087141;23;20457;-82
2024/01/04 12:04:48;;;;;;;1.57;1.10;;;10.30;98.20;;;;;;6101688;23;20444;-80
2024/01/04 12:07:18;;;;;;;1.57;1.10;;;10.30;98.20;;;;;;6088159;23;20473;-80
2024/01/04 12:09:57;;;;;;;1.60;1.20;;;10.30;98.20;;;;;;6103491;23;20443;-82
2024/01/04 12:12:23;;;;;;;1.60;1.20;;;10.40;98.20;;;;;;6089840;23;20462;-83
2024/01/04 12:14:50;;;;;;;1.60;1.20;;;10.50;98.20;;;;;;6096663;23;20503;-82
2024/01/04 12:17:17;;;;;;;1.57;1.10;;;10.50;98.20;;;;;;6089853;23;20439;-84
2024/01/04 12:20:25;;;;;;;1.60;1.30;;;10.50;98.20;;;;;;6098707;23;20426;-82
2024/01/04 12:23:04;;;;;;;1.60;1.20;;;10.50;98.20;;;;;;6078475;23;20497;-83
2024/01/04 12:28:40;;;;;;;1.57;1.10;;;10.50;98.20;;;;;;6047864;23;20517;-84
2024/01/04 12:31:27;;;;;;;1.60;1.20;;;10.50;98.20;;;;;;6092342;23;20520;-84
2024/01/04 12:33:59;;;;;;;1.60;1.10;;;10.50;98.20;;;;;;6107669;23;20610;-85
2024/01/04 12:36:28;;;;;;;1.60;1.10;;;10.50;98.20;;;;;;6084960;23;20809;-83
2024/01/04 12:40:01;;;;;;;1.60;1.10;;;10.40;98.20;;;;;;6107921;23;20422;-83
2024/01/04 12:42:32;;;;;;;1.60;1.20;;;10.50;98.20;;;;;;6069530;23;20442;-82
2024/01/04 12:51:52;;;;;;;1.60;1.00;;;10.70;98.20;;;;;;6023850;23;20447;-82
2024/01/04 12:54:51;;;;;;;1.60;1.10;;;10.80;98.20;;;;;;6098029;23;20466;-83
2024/01/04 12:57:28;;;;;;;1.60;1.10;;;10.90;98.20;;;;;;6081453;23;20451;-82
2024/01/04 12:59:56;;;;;;;1.60;1.10;;;11.00;98.20;;;;;;6108677;23;20421;-83
2024/01/04 13:02:46;;;;;;;1.60;1.00;;;11.10;98.20;;;;;;6086739;23;20447;-83
2024/01/04 13:05:34;;;;;;;1.60;1.10;;;11.20;98.20;;;;;;6108695;23;20446;-85
2024/01/04 13:08:17;;;;;;;1.60;1.10;;;11.40;98.20;;;;;;6081388;23;20450;-82
2024/01/04 13:32:46;;;;;;;1.50;1.00;;;11.10;98.20;;;;;;5757936;24;20208;-82
2024/01/04 13:36:13;;;;;;;1.60;1.00;;;11.00;98.20;;;;;;5999426;23;20540;-82
2024/01/04 13:42:08;;;;;;;1.60;1.10;;;10.80;98.20;;;;;;5972325;23;20452;-84
2024/01/04 13:48:03;;;;;;;1.57;1.10;;;10.70;98.20;;;;;;6087793;23;20510;-84